Time;durP1;ratioP1;P1;durP2;ratioP2;P2;SDS_P1;SDS_P2;PMS_P1;PMS_P2;Temp;Humidity;BMP_temperature;BMP_pressure;BME280_temperature;BME280_humidity;BME280_pressure;Samples;Min_cycle;Max_cycle;Signal;HPM_P1;HPM_P2
2024/02/13 00:01:59;;;;;;;3.90;3.20;;;;;;;5.92;88.47;94320.60;106644;1275;22531;-80
2024/02/13 00:04:27;;;;;;;4.30;3.30;;;;;;;5.89;88.56;94320.30;106696;1275;22509;-80
2024/02/13 00:06:56;;;;;;;4.00;3.10;;;;;;;5.88;88.55;94322.59;106669;1275;22622;-80
2024/02/13 00:09:24;;;;;;;3.10;2.80;;;;;;;5.88;88.34;94328.34;106887;1275;22527;-79
2024/02/13 00:11:53;;;;;;;5.80;3.10;;;;;;;5.87;88.18;94321.73;106660;1275;22528;-80
2024/02/13 00:14:22;;;;;;;5.00;3.40;;;;;;;5.86;88.49;94322.27;106636;1275;22610;-80
2024/02/13 00:16:51;;;;;;;5.10;3.20;;;;;;;5.85;88.32;94327.02;106758;1275;22528;-80
2024/02/13 00:19:19;;;;;;;3.30;2.90;;;;;;;5.86;88.12;94324.54;106619;1275;25357;-80
2024/02/13 00:21:48;;;;;;;4.00;3.20;;;;;;;5.86;88.15;94330.31;106674;1275;22655;-80
2024/02/13 00:24:16;;;;;;;3.20;2.60;;;;;;;5.86;87.92;94331.88;106677;1275;22532;-80
2024/02/13 00:26:46;;;;;;;3.30;2.80;;;;;;;5.86;87.86;94329.77;106680;1275;23884;-80
2024/02/13 00:29:15;;;;;;;2.70;2.40;;;;;;;5.86;87.40;94331.00;106747;1275;22519;-81
2024/02/13 00:31:43;;;;;;;3.50;2.30;;;;;;;5.87;86.89;94330.11;106609;1275;22530;-80
2024/02/13 00:34:12;;;;;;;2.70;2.30;;;;;;;5.86;87.28;94333.09;106869;1275;24209;-80
2024/02/13 00:36:40;;;;;;;2.90;2.30;;;;;;;5.84;87.20;94331.73;106710;1275;22579;-80
2024/02/13 00:39:08;;;;;;;3.90;2.70;;;;;;;5.84;86.99;94334.55;106878;1275;24055;-80
2024/02/13 00:41:36;;;;;;;2.80;2.20;;;;;;;5.85;86.88;94336.27;106669;1275;22527;-79
2024/02/13 00:44:05;;;;;;;2.40;2.10;;;;;;;5.85;86.70;94337.48;106641;1275;22636;-79
2024/02/13 00:46:34;;;;;;;2.30;2.10;;;;;;;5.84;86.52;94342.89;106652;1275;22642;-80
2024/02/13 00:49:03;;;;;;;2.20;2.00;;;;;;;5.82;86.46;94337.19;106659;1275;24379;-80
2024/02/13 00:51:32;;;;;;;2.40;2.10;;;;;;;5.82;86.28;94342.77;106722;1275;22519;-80
2024/02/13 00:54:01;;;;;;;2.50;2.10;;;;;;;5.82;86.32;94347.14;106671;1275;24403;-80
2024/02/13 00:56:29;;;;;;;2.50;2.00;;;;;;;5.79;86.32;94344.75;106634;1275;22654;-80
2024/02/13 00:59:03;;;;;;;2.30;2.00;;;;;;;5.78;85.97;94343.90;106731;1275;23127;-80
2024/02/13 01:01:32;;;;;;;2.20;1.90;;;;;;;5.78;86.10;94353.33;106626;1275;22633;-80
2024/02/13 01:04:06;;;;;;;3.40;2.30;;;;;;;5.77;86.22;94359.63;106688;1275;24511;-80
2024/02/13 01:06:35;;;;;;;2.50;2.00;;;;;;;5.78;86.12;94354.70;106706;1275;24215;-80
2024/02/13 01:09:05;;;;;;;4.20;2.30;;;;;;;5.78;86.13;94359.25;106663;1275;22643;-80
2024/02/13 01:11:35;;;;;;;2.30;2.10;;;;;;;5.79;85.98;94357.85;106746;1275;22639;-81
2024/02/13 01:14:04;;;;;;;2.70;2.10;;;;;;;5.79;86.12;94360.98;106731;1275;25354;-80
2024/02/13 01:16:33;;;;;;;2.00;1.80;;;;;;;5.79;86.01;94362.21;106607;1275;25355;-81
2024/02/13 01:19:03;;;;;;;3.40;2.10;;;;;;;5.79;85.70;94365.87;106709;1275;24440;-80
2024/02/13 01:21:32;;;;;;;2.00;1.80;;;;;;;5.80;85.63;94370.05;106688;1275;22527;-80
2024/02/13 01:24:00;;;;;;;2.10;1.90;;;;;;;5.80;85.64;94370.21;106668;1275;23698;-80
2024/02/13 01:26:29;;;;;;;3.10;2.10;;;;;;;5.81;85.46;94370.89;106674;1275;22528;-80
2024/02/13 01:28:57;;;;;;;2.00;1.70;;;;;;;5.82;85.38;94375.40;106694;1275;22743;-80
2024/02/13 01:31:26;;;;;;;3.40;2.50;;;;;;;5.83;85.40;94378.70;106646;1275;24225;-79
2024/02/13 01:33:54;;;;;;;2.80;2.00;;;;;;;5.85;85.43;94376.58;106750;1275;22574;-80
2024/02/13 01:36:23;;;;;;;2.50;2.30;;;;;;;5.87;85.22;94376.54;106611;1275;22534;-79
2024/02/13 01:38:52;;;;;;;3.00;2.30;;;;;;;5.89;85.04;94377.19;106646;1275;22527;-80
2024/02/13 01:41:20;;;;;;;2.60;1.80;;;;;;;5.91;83.96;94375.40;106769;1275;23115;-79
2024/02/13 01:43:49;;;;;;;2.50;2.00;;;;;;;5.94;83.61;94372.23;106613;1275;24231;-80
2024/02/13 01:46:19;;;;;;;2.30;2.00;;;;;;;5.95;83.82;94374.65;106707;1275;22533;-79
2024/02/13 01:48:48;;;;;;;1.90;1.70;;;;;;;5.96;83.76;94376.39;106655;1275;24219;-79
2024/02/13 01:51:17;;;;;;;3.00;2.50;;;;;;;5.96;83.86;94375.16;106580;1275;25021;-80
2024/02/13 01:53:45;;;;;;;1.90;1.70;;;;;;;5.96;83.79;94370.63;106714;1275;22540;-79
2024/02/13 01:56:15;;;;;;;2.40;2.20;;;;;;;5.97;83.81;94371.83;106680;1275;22523;-78
2024/02/13 01:58:43;;;;;;;2.50;2.20;;;;;;;5.96;83.81;94368.52;106684;1275;22511;-79
2024/02/13 02:01:11;;;;;;;1.50;1.30;;;;;;;5.95;83.73;94366.44;106745;1272;24285;-79
2024/02/13 02:03:41;;;;;;;2.20;1.60;;;;;;;5.95;83.60;94369.27;106679;1275;22520;-78
2024/02/13 02:06:09;;;;;;;1.70;1.60;;;;;;;5.95;83.48;94365.77;106731;1275;25696;-79
2024/02/13 02:08:39;;;;;;;2.20;1.70;;;;;;;5.96;83.44;94361.91;106691;1275;25507;-79
2024/02/13 02:11:10;;;;;;;2.20;1.70;;;;;;;5.97;83.38;94361.36;106653;1275;22504;-79
2024/02/13 02:13:39;;;;;;;1.60;1.10;;;;;;;5.96;83.45;94358.75;106689;1275;24271;-79
2024/02/13 02:16:07;;;;;;;2.40;2.10;;;;;;;5.95;83.24;94357.90;106691;1275;25298;-79
2024/02/13 02:18:35;;;;;;;2.50;1.80;;;;;;;5.96;83.24;94353.35;106658;1275;22519;-79
2024/02/13 02:21:04;;;;;;;2.00;1.80;;;;;;;5.94;83.21;94356.52;106705;1275;25412;-79
2024/02/13 02:23:34;;;;;;;2.20;2.00;;;;;;;5.93;83.17;94360.72;106650;1275;25300;-79
2024/02/13 02:26:03;;;;;;;1.70;1.40;;;;;;;5.93;83.40;94357.92;106668;1275;22571;-78
2024/02/13 02:28:33;;;;;;;1.60;1.50;;;;;;;5.92;83.53;94356.02;106622;1275;22789;-78
2024/02/13 02:31:01;;;;;;;1.50;1.30;;;;;;;5.93;83.57;94358.10;106636;1275;25662;-79
2024/02/13 02:33:30;;;;;;;2.40;2.10;;;;;;;5.93;83.62;94357.40;106663;1275;22523;-80
2024/02/13 02:35:58;;;;;;;2.10;1.90;;;;;;;5.91;83.73;94359.34;106701;1275;24040;-79
2024/02/13 02:38:26;;;;;;;2.00;1.70;;;;;;;5.91;83.74;94360.23;106648;1275;23890;-79
2024/02/13 02:40:55;;;;;;;2.20;1.60;;;;;;;5.90;83.74;94359.73;106634;1275;24219;-78
2024/02/13 02:43:23;;;;;;;1.80;1.50;;;;;;;5.87;84.14;94362.75;106666;1275;22531;-79
2024/02/13 02:45:51;;;;;;;2.20;1.80;;;;;;;5.86;84.17;94364.50;106617;1275;22473;-79
2024/02/13 02:48:20;;;;;;;4.00;1.50;;;;;;;5.84;84.40;94366.30;106699;1275;22639;-79
2024/02/13 02:50:49;;;;;;;2.30;1.80;;;;;;;5.83;84.39;94365.95;106652;1275;22524;-80
2024/02/13 02:53:17;;;;;;;2.40;1.70;;;;;;;5.85;84.39;94363.67;106636;1275;22537;-79
2024/02/13 02:55:49;;;;;;;1.90;1.70;;;;;;;5.86;84.56;94360.69;106726;1275;22520;-78
2024/02/13 02:58:17;;;;;;;2.30;2.10;;;;;;;5.87;84.58;94365.52;106681;1275;22765;-79
2024/02/13 03:00:46;;;;;;;2.40;1.40;;;;;;;5.90;84.86;94369.52;106639;1275;22747;-79
2024/02/13 03:03:15;;;;;;;2.00;1.70;;;;;;;5.92;84.89;94371.91;106794;1275;24466;-79
2024/02/13 03:05:43;;;;;;;1.70;1.60;;;;;;;5.94;85.13;94378.16;106600;1275;25239;-80
2024/02/13 03:08:12;;;;;;;2.80;1.90;;;;;;;5.96;85.30;94376.73;106624;1275;24278;-79
2024/02/13 03:10:41;;;;;;;1.80;1.50;;;;;;;5.96;85.28;94372.71;106656;1275;25296;-80
2024/02/13 03:13:10;;;;;;;2.50;1.90;;;;;;;5.96;85.44;94372.53;106707;1275;22609;-80
2024/02/13 03:15:38;;;;;;;1.90;1.50;;;;;;;5.96;85.49;94378.48;106637;1275;22524;-79
2024/02/13 03:18:09;;;;;;;2.10;1.90;;;;;;;5.95;85.67;94382.86;106733;1275;25340;-79
2024/02/13 03:20:39;;;;;;;2.20;2.00;;;;;;;5.96;85.61;94383.55;106640;1275;22550;-79
2024/02/13 03:23:08;;;;;;;2.10;1.80;;;;;;;5.95;85.85;94386.88;106714;1275;22525;-79
2024/02/13 03:25:36;;;;;;;2.60;2.30;;;;;;;5.95;85.94;94386.87;106837;1275;22532;-79
2024/02/13 03:28:05;;;;;;;2.40;1.80;;;;;;;5.96;86.10;94393.16;106790;1275;23904;-78
2024/02/13 03:30:33;;;;;;;1.90;1.50;;;;;;;5.95;86.00;94400.15;106571;1275;22573;-78
2024/02/13 03:33:02;;;;;;;2.00;1.70;;;;;;;5.96;86.01;94398.20;106626;1275;22548;-78
2024/02/13 03:35:31;;;;;;;3.20;2.20;;;;;;;5.99;85.85;94399.72;106675;1275;22554;-79
2024/02/13 03:38:00;;;;;;;2.00;1.80;;;;;;;5.98;85.76;94401.13;106780;1275;25522;-79
2024/02/13 03:40:29;;;;;;;2.40;2.00;;;;;;;5.97;86.56;94407.96;106701;1275;25320;-79
2024/02/13 03:42:57;;;;;;;3.20;2.10;;;;;;;5.94;86.56;94409.94;106656;1275;22539;-79
2024/02/13 03:45:25;;;;;;;2.80;2.10;;;;;;;5.92;87.01;94419.89;106698;1275;25355;-78
2024/02/13 03:47:53;;;;;;;2.90;2.10;;;;;;;5.92;86.84;94424.44;106655;1275;25482;-79
2024/02/13 03:50:22;;;;;;;3.10;2.60;;;;;;;5.91;87.56;94427.42;106608;1275;22521;-79
2024/02/13 03:52:51;;;;;;;3.00;2.30;;;;;;;5.93;87.54;94433.31;106677;1275;24442;-79
2024/02/13 03:55:19;;;;;;;4.80;2.70;;;;;;;5.94;87.78;94438.56;106657;1275;22550;-79
2024/02/13 03:57:49;;;;;;;3.80;2.80;;;;;;;5.93;88.47;94436.81;106713;1275;25503;-79
2024/02/13 04:00:18;;;;;;;4.30;3.20;;;;;;;5.93;88.77;94439.44;106698;1275;25412;-79
2024/02/13 04:02:46;;;;;;;4.00;2.90;;;;;;;5.93;88.80;94440.48;106704;1275;25451;-79
2024/02/13 04:05:15;;;;;;;3.80;2.90;;;;;;;5.93;88.86;94442.56;106595;1275;22595;-79
2024/02/13 04:07:43;;;;;;;4.10;3.00;;;;;;;5.93;89.23;94440.14;106645;1272;22792;-79
2024/02/13 04:10:12;;;;;;;3.10;2.40;;;;;;;5.92;89.43;94446.95;106563;1275;22539;-79
2024/02/13 04:12:40;;;;;;;4.30;2.90;;;;;;;5.93;89.23;94447.64;106624;1275;25417;-79
2024/02/13 04:15:12;;;;;;;3.60;3.00;;;;;;;5.92;89.63;94453.77;106655;1275;24274;-79
2024/02/13 04:17:40;;;;;;;27.50;15.50;;;;;;;5.90;89.96;94450.13;106651;1275;22619;-78
2024/02/13 04:20:09;;;;;;;9.90;6.70;;;;;;;5.90;89.84;94456.07;106680;1275;24274;-78
2024/02/13 04:22:38;;;;;;;10.40;9.30;;;;;;;5.89;90.01;94462.37;106655;1275;22528;-79
2024/02/13 04:25:08;;;;;;;7.80;7.10;;;;;;;5.87;90.35;94464.13;106623;1275;22561;-78
2024/02/13 04:27:39;;;;;;;6.60;5.40;;;;;;;5.85;90.33;94469.06;106669;1275;22523;-78
2024/02/13 04:30:10;;;;;;;8.70;6.80;;;;;;;5.83;90.63;94473.80;106809;1275;25360;-78
2024/02/13 04:32:40;;;;;;;5.50;4.60;;;;;;;5.79;91.07;94477.01;106881;1275;22527;-80
2024/02/13 04:35:09;;;;;;;12.60;11.30;;;;;;;5.77;90.90;94485.45;106696;1275;22643;-81
2024/02/13 04:37:37;;;;;;;94.90;65.80;;;;;;;5.76;90.92;94491.73;106730;1275;25306;-82
2024/02/13 04:40:07;;;;;;;30.70;27.20;;;;;;;5.76;90.89;94493.14;106689;1275;22602;-81
2024/02/13 04:42:38;;;;;;;23.20;21.00;;;;;;;5.75;90.94;94494.89;106692;1275;22525;-81
2024/02/13 04:45:06;;;;;;;8.80;8.00;;;;;;;5.74;90.75;94500.14;106731;1275;25287;-81
2024/02/13 04:47:34;;;;;;;2.90;2.40;;;;;;;5.74;90.84;94504.68;106624;1275;22553;-81
2024/02/13 04:50:06;;;;;;;3.00;2.60;;;;;;;5.74;90.72;94509.76;106672;1275;22642;-82
2024/02/13 04:52:35;;;;;;;11.60;10.50;;;;;;;5.70;90.86;94507.36;106590;1275;22528;-82
2024/02/13 04:55:04;;;;;;;5.30;4.80;;;;;;;5.67;91.10;94506.02;106698;1275;22602;-82
2024/02/13 04:57:33;;;;;;;5.30;4.00;;;;;;;5.68;90.77;94506.72;106823;1266;22639;-82
2024/02/13 05:00:13;;;;;;;4.20;3.60;;;;;;;5.66;90.98;94507.27;106768;1275;24187;-82
2024/02/13 05:02:48;;;;;;;3.40;3.10;;;;;;;5.64;90.78;94509.04;106705;1275;24199;-82
2024/02/13 05:08:06;;;;;;;4.20;3.50;;;;;;;5.63;90.42;94510.45;106610;1275;22537;-82
2024/02/13 05:10:35;;;;;;;65.10;43.10;;;;;;;5.62;90.67;94514.83;106640;1275;22540;-81
2024/02/13 05:13:03;;;;;;;7.40;5.10;;;;;;;5.58;90.96;94514.37;106732;1275;25378;-82
2024/02/13 05:15:32;;;;;;;103.60;67.90;;;;;;;5.57;90.75;94516.31;106645;1275;22538;-82
2024/02/13 05:18:01;;;;;;;17.30;13.70;;;;;;;5.57;90.79;94523.47;106724;1275;24586;-82
2024/02/13 05:20:29;;;;;;;60.80;44.60;;;;;;;5.55;90.45;94526.13;106690;1275;22537;-82
2024/02/13 05:22:59;;;;;;;21.20;15.80;;;;;;;5.54;90.46;94527.70;106684;1275;22570;-81
2024/02/13 05:25:29;;;;;;;18.90;13.40;;;;;;;5.53;90.27;94535.04;106710;1275;25294;-82
2024/02/13 05:27:57;;;;;;;38.50;28.50;;;;;;;5.54;90.12;94544.80;106713;1275;24275;-82
2024/02/13 05:30:25;;;;;;;40.60;32.50;;;;;;;5.50;90.34;94548.86;106724;1275;22580;-82
2024/02/13 05:32:53;;;;;;;20.00;16.90;;;;;;;5.52;90.35;94555.11;106667;1257;24274;-82
2024/02/13 05:35:21;;;;;;;15.80;12.60;;;;;;;5.53;90.25;94558.94;106674;1275;24344;-82
2024/02/13 05:37:51;;;;;;;11.10;9.90;;;;;;;5.52;90.40;94561.05;106673;1275;22645;-82
2024/02/13 05:40:20;;;;;;;3.40;2.80;;;;;;;5.51;90.48;94570.48;106772;1275;22520;-83
2024/02/13 05:42:48;;;;;;;7.10;5.70;;;;;;;5.49;90.67;94576.80;106650;1275;22532;-82
2024/02/13 05:45:16;;;;;;;4.30;2.80;;;;;;;5.46;90.77;94578.23;106710;1253;24423;-82
2024/02/13 05:47:45;;;;;;;8.20;6.60;;;;;;;5.46;91.06;94581.55;106629;1275;25297;-82
2024/02/13 05:50:16;;;;;;;26.70;23.20;;;;;;;5.45;90.86;94581.92;106664;1275;22526;-82
2024/02/13 05:52:47;;;;;;;14.10;12.60;;;;;;;5.47;90.53;94590.61;106784;1275;22525;-83
2024/02/13 05:55:16;;;;;;;6.10;5.10;;;;;;;5.48;90.69;94587.45;106670;1275;24205;-81
2024/02/13 05:57:44;;;;;;;3.10;2.30;;;;;;;5.48;90.81;94587.98;106829;1275;25575;-79
2024/02/13 06:00:14;;;;;;;13.90;11.80;;;;;;;5.49;90.65;94594.77;106725;1275;22541;-80
2024/02/13 06:02:43;;;;;;;22.10;19.80;;;;;;;5.49;90.69;94600.50;107246;1275;22630;-83
2024/02/13 06:05:14;;;;;;;9.60;8.40;;;;;;;5.47;90.99;94608.05;106926;1275;24245;-82
2024/02/13 06:07:44;;;;;;;5.20;4.20;;;;;;;5.47;90.84;94616.41;106745;1275;25369;-82
2024/02/13 06:10:12;;;;;;;6.40;4.60;;;;;;;5.48;90.92;94622.52;106931;1275;22580;-80
2024/02/13 06:12:40;;;;;;;10.30;7.90;;;;;;;5.49;90.90;94624.92;107072;1275;24237;-82
2024/02/13 06:15:09;;;;;;;5.80;4.50;;;;;;;5.50;91.02;94629.63;106658;1259;24259;-81
2024/02/13 06:17:38;;;;;;;3.00;2.70;;;;;;;5.49;90.72;94632.78;106882;1275;22947;-83
2024/02/13 06:20:08;;;;;;;5.20;3.00;;;;;;;5.47;90.65;94636.13;106796;1266;22640;-81
2024/02/13 06:22:37;;;;;;;3.80;2.60;;;;;;;5.48;90.73;94639.60;107012;1275;22524;-82
2024/02/13 06:25:06;;;;;;;3.80;2.90;;;;;;;5.47;90.70;94642.58;107094;1275;22518;-82
2024/02/13 06:27:35;;;;;;;2.50;2.00;;;;;;;5.47;90.78;94643.80;106727;1275;22558;-81
2024/02/13 06:30:04;;;;;;;2.20;1.90;;;;;;;5.46;90.93;94649.75;106645;1272;22527;-81
2024/02/13 06:32:33;;;;;;;3.00;1.40;;;;;;;5.45;90.97;94653.60;106774;1275;24206;-79
2024/02/13 06:35:01;;;;;;;1.80;1.60;;;;;;;5.44;91.07;94656.58;106758;1275;22639;-81
2024/02/13 06:37:30;;;;;;;2.60;1.90;;;;;;;5.45;91.02;94660.22;106734;1275;22689;-79
2024/02/13 06:39:58;;;;;;;3.30;1.80;;;;;;;5.45;90.91;94665.79;106659;1275;24234;-79
2024/02/13 06:42:27;;;;;;;1.80;1.40;;;;;;;5.46;90.90;94665.28;106794;1275;24278;-80
2024/02/13 06:44:55;;;;;;;3.20;2.10;;;;;;;5.45;90.93;94673.66;106569;1275;22649;-81
2024/02/13 06:47:25;;;;;;;2.90;2.30;;;;;;;5.47;90.79;94672.23;106646;1275;23916;-80
2024/02/13 06:49:54;;;;;;;4.30;2.50;;;;;;;5.49;90.82;94680.41;106780;1264;25325;-80
2024/02/13 06:52:23;;;;;;;3.40;2.40;;;;;;;5.49;90.87;94683.52;106667;1275;24504;-83
2024/02/13 06:54:51;;;;;;;93.10;54.20;;;;;;;5.49;91.18;94687.38;106904;1275;22573;-82
2024/02/13 06:57:19;;;;;;;23.90;17.90;;;;;;;5.49;91.03;94688.94;106779;1275;24271;-80
2024/02/13 06:59:48;;;;;;;40.00;27.00;;;;;;;5.51;90.91;94689.10;107010;1264;24297;-83
2024/02/13 07:02:16;;;;;;;24.30;18.80;;;;;;;5.52;90.85;94691.01;107168;1275;22559;-80
2024/02/13 07:04:45;;;;;;;4.80;3.40;;;;;;;5.53;91.08;94695.86;106985;1275;22764;-80
2024/02/13 07:07:14;;;;;;;8.40;6.90;;;;;;;5.54;90.77;94697.77;106988;1275;24409;-81
2024/02/13 07:10:02;;;;;;;5.20;3.10;;;;;;;5.56;90.77;94698.80;106869;1275;22521;-81
2024/02/13 07:12:31;;;;;;;6.60;5.20;;;;;;;5.57;90.81;94702.63;106701;1264;22530;-80
2024/02/13 07:14:59;;;;;;;3.80;3.00;;;;;;;5.58;90.88;94706.98;106758;1275;22527;-81
2024/02/13 07:17:27;;;;;;;2.70;2.00;;;;;;;5.58;90.81;94709.05;106713;1275;22535;-80
2024/02/13 07:19:59;;;;;;;5.00;3.50;;;;;;;5.59;90.83;94710.63;106836;1275;22529;-80
2024/02/13 07:22:28;;;;;;;3.90;2.60;;;;;;;5.58;90.91;94713.43;106893;1275;25529;-83
2024/02/13 07:24:58;;;;;;;6.30;3.50;;;;;;;5.58;91.01;94713.60;106699;1275;26679;-83
2024/02/13 07:27:28;;;;;;;9.80;4.40;;;;;;;5.57;91.03;94719.19;106713;1275;22517;-81
2024/02/13 07:29:56;;;;;;;6.20;4.00;;;;;;;5.56;91.05;94721.13;106758;1273;22531;-81
2024/02/13 07:32:25;;;;;;;9.00;5.00;;;;;;;5.55;91.24;94721.14;106893;1275;22775;-82
2024/02/13 07:34:53;;;;;;;6.10;4.50;;;;;;;5.52;91.73;94726.76;106711;1275;24238;-80
2024/02/13 07:37:23;;;;;;;18.30;8.50;;;;;;;5.52;91.53;94727.28;106650;1275;22540;-81
2024/02/13 07:39:51;;;;;;;13.90;7.40;;;;;;;5.54;91.43;94728.13;106713;1275;22572;-79
2024/02/13 07:42:20;;;;;;;5.20;3.50;;;;;;;5.53;91.41;94727.79;106728;1275;22539;-81
2024/02/13 07:44:49;;;;;;;5.20;3.50;;;;;;;5.53;91.63;94731.27;106812;1275;22647;-81
2024/02/13 07:47:17;;;;;;;4.70;3.20;;;;;;;5.51;91.83;94732.35;106667;1275;25548;-80
2024/02/13 07:49:46;;;;;;;4.20;2.80;;;;;;;5.49;92.01;94735.17;106679;1275;22671;-78
2024/02/13 07:52:17;;;;;;;4.00;2.50;;;;;;;5.49;91.98;94735.68;106753;1275;25284;-79
2024/02/13 07:54:46;;;;;;;6.50;4.90;;;;;;;5.51;91.74;94738.98;106986;1276;22533;-79
2024/02/13 07:57:16;;;;;;;3.30;2.20;;;;;;;5.50;92.11;94739.69;106717;1276;22528;-81
2024/02/13 07:59:45;;;;;;;4.10;2.40;;;;;;;5.47;92.10;94741.47;106907;1276;25306;-80
2024/02/13 08:02:14;;;;;;;2.90;2.50;;;;;;;5.47;92.33;94741.83;107036;1276;26698;-79
2024/02/13 08:04:43;;;;;;;5.20;4.40;;;;;;;5.47;92.32;94746.36;106849;1276;25249;-79
2024/02/13 08:07:12;;;;;;;4.40;3.30;;;;;;;5.50;92.31;94745.09;107207;1276;24407;-80
2024/02/13 08:09:40;;;;;;;4.20;2.90;;;;;;;5.48;92.04;94746.16;106857;1269;22527;-79
2024/02/13 08:12:09;;;;;;;3.70;3.00;;;;;;;5.49;91.86;94751.20;107044;1275;22826;-78
2024/02/13 08:14:38;;;;;;;3.70;3.00;;;;;;;5.48;91.67;94757.50;106818;1276;22685;-78
2024/02/13 08:17:08;;;;;;;4.70;3.30;;;;;;;5.47;91.68;94761.38;106698;1273;22559;-82
2024/02/13 08:19:41;;;;;;;8.40;4.20;;;;;;;5.43;91.70;94763.33;106808;1276;22535;-81
2024/02/13 08:22:10;;;;;;;6.70;3.90;;;;;;;5.42;92.23;94769.96;106736;1276;22639;-80
2024/02/13 08:24:39;;;;;;;4.30;3.60;;;;;;;5.40;92.02;94773.30;106833;1276;26612;-77
2024/02/13 08:27:07;;;;;;;5.50;3.90;;;;;;;5.40;91.90;94775.41;106674;1273;22616;-78
2024/02/13 08:29:35;;;;;;;4.40;3.70;;;;;;;5.39;91.78;94777.15;106968;1276;22523;-79
2024/02/13 08:32:06;;;;;;;5.10;4.00;;;;;;;5.38;91.60;94786.41;106999;1269;22534;-78
2024/02/13 08:34:35;;;;;;;5.80;4.20;;;;;;;5.41;91.51;94789.16;107027;1276;22648;-80
2024/02/13 08:37:03;;;;;;;10.00;5.90;;;;;;;5.40;91.69;94789.34;106723;1276;22552;-79
2024/02/13 08:39:32;;;;;;;8.60;5.40;;;;;;;5.38;91.41;94793.39;106678;1276;24054;-80
2024/02/13 08:42:01;;;;;;;7.90;5.60;;;;;;;5.37;91.53;94793.92;106711;1276;22513;-79
2024/02/13 08:44:30;;;;;;;8.80;5.50;;;;;;;5.35;91.65;94795.86;106856;1260;25718;-80
2024/02/13 08:46:59;;;;;;;8.50;5.80;;;;;;;5.32;91.85;94797.64;106762;1276;26650;-82
2024/02/13 08:49:28;;;;;;;8.50;5.60;;;;;;;5.33;91.85;94800.77;106674;1276;25398;-80
2024/02/13 08:51:57;;;;;;;6.30;5.20;;;;;;;5.32;91.40;94807.41;106754;1276;22642;-79
2024/02/13 08:54:25;;;;;;;9.80;6.10;;;;;;;5.29;91.39;94807.77;106738;1260;25496;-78
2024/02/13 08:56:54;;;;;;;7.30;5.40;;;;;;;5.30;91.63;94812.84;106677;1276;23131;-79
2024/02/13 08:59:22;;;;;;;9.10;5.50;;;;;;;5.31;91.55;94814.20;106800;1276;22648;-80
2024/02/13 09:01:50;;;;;;;11.20;5.70;;;;;;;5.29;90.97;94817.02;106728;1276;22530;-80
2024/02/13 09:04:19;;;;;;;8.70;6.80;;;;;;;5.24;90.93;94822.48;106742;1276;25341;-82
2024/02/13 09:06:47;;;;;;;10.40;5.70;;;;;;;5.24;91.02;94823.19;106766;1276;24256;-82
2024/02/13 09:09:16;;;;;;;8.20;6.00;;;;;;;5.23;91.13;94834.00;106739;1276;22516;-84
2024/02/13 09:11:45;;;;;;;10.60;7.30;;;;;;;5.22;91.19;94841.16;106626;1266;24265;-83
2024/02/13 09:14:14;;;;;;;9.60;6.90;;;;;;;5.23;91.17;94845.33;106848;1276;24228;-82
2024/02/13 09:16:42;;;;;;;10.50;6.80;;;;;;;5.22;91.14;94853.18;106837;1276;24219;-84
2024/02/13 09:19:11;;;;;;;10.30;7.20;;;;;;;5.23;91.17;94854.23;106861;1276;25447;-84
2024/02/13 09:21:41;;;;;;;10.90;7.30;;;;;;;5.20;91.34;94862.27;107152;1276;23381;-84
2024/02/13 09:24:09;;;;;;;10.90;8.00;;;;;;;5.19;91.10;94860.71;107352;1276;24071;-84
2024/02/13 09:26:38;;;;;;;11.70;6.70;;;;;;;5.20;91.06;94863.66;107023;1276;22643;-84
2024/02/13 09:29:06;;;;;;;18.00;10.00;;;;;;;5.20;90.99;94866.98;106803;1276;24254;-83
2024/02/13 09:31:34;;;;;;;19.40;12.20;;;;;;;5.21;90.88;94865.05;106788;1264;24344;-83
2024/02/13 09:34:06;;;;;;;13.10;8.30;;;;;;;5.21;90.96;94869.06;106891;1276;25362;-81
2024/02/13 09:36:37;;;;;;;11.70;7.30;;;;;;;5.18;91.04;94872.23;106882;1276;22534;-84
2024/02/13 09:39:08;;;;;;;11.50;7.70;;;;;;;5.15;91.09;94874.35;106783;1276;22569;-81
2024/02/13 09:41:41;;;;;;;9.40;7.10;;;;;;;5.15;90.89;94871.39;107060;1276;22534;-80
2024/02/13 09:44:09;;;;;;;13.20;8.20;;;;;;;5.14;90.52;94873.48;106895;1276;25486;-82
2024/02/13 09:46:39;;;;;;;10.30;7.70;;;;;;;5.12;90.45;94882.77;106752;1276;25429;-81
2024/02/13 09:49:11;;;;;;;11.70;7.70;;;;;;;5.10;90.33;94879.96;106881;1276;25379;-81
2024/02/13 09:51:42;;;;;;;12.80;8.60;;;;;;;5.10;90.47;94888.52;106966;1276;22624;-83
2024/02/13 09:54:15;;;;;;;11.60;7.80;;;;;;;5.10;90.38;94891.13;106839;1276;22602;-82
2024/02/13 09:56:46;;;;;;;14.70;7.90;;;;;;;5.10;90.49;94891.31;106804;1276;22572;-82
2024/02/13 09:59:15;;;;;;;13.00;8.20;;;;;;;5.08;90.60;94889.06;106764;1276;25503;-80
2024/02/13 10:01:45;;;;;;;13.70;9.10;;;;;;;5.07;90.65;94893.95;106774;1276;25648;-81
2024/02/13 10:04:14;;;;;;;13.80;8.70;;;;;;;5.09;90.69;94894.64;106807;1276;22639;-81
2024/02/13 10:06:42;;;;;;;12.30;8.30;;;;;;;5.11;90.65;94897.23;107127;1276;22730;-86
2024/02/13 10:09:12;;;;;;;13.90;8.40;;;;;;;5.09;90.60;94898.80;107074;1276;25487;-81
2024/02/13 10:11:41;;;;;;;10.90;7.70;;;;;;;5.08;90.82;94900.91;106954;1276;22628;-80
2024/02/13 10:14:21;;;;;;;10.20;7.30;;;;;;;5.06;90.94;94904.08;106510;1276;608724;-81
2024/02/13 10:16:50;;;;;;;12.00;7.80;;;;;;;5.04;90.89;94906.36;106992;1276;22652;-82
2024/02/13 10:19:21;;;;;;;12.60;8.70;;;;;;;5.03;90.49;94907.41;106746;1270;24463;-82
2024/02/13 10:21:49;;;;;;;13.90;8.90;;;;;;;5.02;90.53;94907.94;106655;1276;22659;-81
2024/02/13 10:24:20;;;;;;;16.90;11.00;;;;;;;5.03;90.51;94907.94;106611;1276;25377;-81
2024/02/13 10:26:49;;;;;;;18.20;11.20;;;;;;;5.04;90.60;94910.19;106706;1276;22776;-82
2024/02/13 10:29:17;;;;;;;21.20;12.10;;;;;;;5.04;90.57;94907.40;106677;1276;23485;-81
2024/02/13 10:31:45;;;;;;;12.20;8.20;;;;;;;5.01;90.63;94908.80;106641;1276;23894;-81
2024/02/13 10:34:14;;;;;;;21.30;11.70;;;;;;;5.01;90.57;94909.86;106674;1276;22630;-81
2024/02/13 10:36:44;;;;;;;24.50;13.00;;;;;;;5.00;90.62;94909.00;106563;1276;26787;-82
2024/02/13 10:39:14;;;;;;;15.70;10.10;;;;;;;4.99;90.56;94913.71;106739;1276;25481;-83
2024/02/13 10:41:48;;;;;;;16.60;9.70;;;;;;;4.95;90.38;94916.02;106632;1276;22808;-82
2024/02/13 10:44:21;;;;;;;13.60;8.70;;;;;;;4.94;90.33;94913.91;106641;1276;22692;-82
2024/02/13 10:46:55;;;;;;;13.80;9.10;;;;;;;4.93;90.24;94915.33;106657;1276;24226;-82
2024/02/13 10:49:27;;;;;;;14.50;9.40;;;;;;;4.91;90.19;94916.04;106635;1276;22638;-81
2024/02/13 10:51:56;;;;;;;11.90;8.20;;;;;;;4.89;90.13;94919.55;106675;1276;22669;-81
2024/02/13 10:54:26;;;;;;;13.70;8.50;;;;;;;4.87;89.95;94915.89;106743;1276;25511;-82
2024/02/13 10:56:57;;;;;;;12.00;8.10;;;;;;;4.85;90.13;94919.21;106707;1276;25417;-82
2024/02/13 10:59:28;;;;;;;13.60;9.00;;;;;;;4.84;90.32;94922.36;106749;1276;22552;-81
2024/02/13 11:01:59;;;;;;;13.20;9.60;;;;;;;4.84;90.40;94923.77;106767;1276;24572;-84
2024/02/13 11:04:30;;;;;;;12.80;8.70;;;;;;;4.85;90.39;94929.16;106717;1269;22705;-82
2024/02/13 11:07:00;;;;;;;12.20;9.00;;;;;;;4.84;90.30;94930.55;106672;1276;25521;-83
2024/02/13 11:09:29;;;;;;;10.40;7.40;;;;;;;4.80;90.35;94926.92;106678;1276;24470;-82
2024/02/13 11:11:58;;;;;;;10.40;6.80;;;;;;;4.76;89.87;94927.64;106656;1276;25360;-81
2024/02/13 11:14:27;;;;;;;12.40;8.50;;;;;;;4.73;89.75;94930.63;106769;1276;25898;-81
2024/02/13 11:16:57;;;;;;;12.70;8.50;;;;;;;4.73;89.84;94931.84;106686;1276;22665;-82
2024/02/13 11:19:58;;;;;;;11.00;7.90;;;;;;;4.73;90.30;94930.98;106809;1276;24246;-81
2024/02/13 11:22:37;;;;;;;9.90;7.00;;;;;;;4.73;90.03;94935.16;106696;1276;22474;-81
2024/02/13 11:25:08;;;;;;;10.70;7.20;;;;;;;4.70;89.57;94935.17;106833;1276;22615;-82
2024/02/13 11:27:40;;;;;;;12.00;8.00;;;;;;;4.69;89.64;94936.77;106607;1276;22523;-82
2024/02/13 11:30:19;;;;;;;11.30;7.80;;;;;;;4.71;89.74;94933.27;106669;1276;22524;-81
2024/02/13 11:32:47;;;;;;;10.70;7.90;;;;;;;4.72;89.92;94932.55;106657;1276;25503;-83
2024/02/13 11:35:17;;;;;;;10.40;6.90;;;;;;;4.73;90.03;94929.58;106645;1276;22757;-81
2024/02/13 11:37:46;;;;;;;15.10;8.80;;;;;;;4.74;90.42;94934.10;106595;1276;22558;-81
2024/02/13 11:40:20;;;;;;;11.40;7.00;;;;;;;4.79;89.85;94940.52;106611;1276;22789;-82
2024/02/13 11:42:48;;;;;;;9.10;7.10;;;;;;;4.79;89.32;94938.42;106679;1276;22663;-82